createdAt,value
2022-07-26T00:01:31.761Z,9.93
2022-07-26T00:04:00.726Z,10.30
2022-07-26T00:06:29.352Z,9.40
2022-07-26T00:11:35.723Z,12.00
2022-07-26T00:14:06.016Z,10.33
2022-07-26T00:16:35.965Z,9.50
2022-07-26T00:19:05.326Z,9.73
2022-07-26T00:21:34.742Z,10.33
2022-07-26T00:24:03.180Z,10.90
2022-07-26T00:26:31.816Z,11.73
2022-07-26T00:29:03.426Z,11.43
2022-07-26T00:31:32.059Z,11.77
2022-07-26T00:34:02.001Z,11.77
2022-07-26T00:36:30.462Z,11.20
2022-07-26T00:38:58.944Z,11.27
2022-07-26T00:41:27.338Z,10.87
2022-07-26T00:43:57.527Z,9.70
2022-07-26T00:46:26.298Z,9.60
2022-07-26T00:48:54.911Z,9.80
2022-07-26T00:51:24.831Z,9.50
2022-07-26T00:53:53.450Z,9.07
2022-07-26T00:56:23.089Z,9.20
2022-07-26T00:58:51.609Z,9.10
2022-07-26T01:01:20.055Z,9.07
2022-07-26T01:03:53.246Z,9.17
2022-07-26T01:06:26.945Z,9.67
2022-07-26T01:11:37.123Z,8.13
2022-07-26T01:14:05.845Z,8.80
2022-07-26T01:16:34.440Z,9.43
2022-07-26T01:19:02.817Z,8.83
2022-07-26T01:21:33.455Z,9.30
2022-07-26T01:24:02.500Z,9.40
2022-07-26T01:26:30.873Z,9.67
2022-07-26T01:28:59.340Z,9.03
2022-07-26T01:31:27.993Z,9.93
2022-07-26T01:33:56.415Z,11.07
2022-07-26T01:36:24.857Z,8.80
2022-07-26T01:38:54.796Z,8.77
2022-07-26T01:41:38.088Z,8.40
2022-07-26T01:44:07.940Z,6.40
2022-07-26T01:46:37.144Z,5.83
2022-07-26T01:49:07.389Z,4.90
2022-07-26T01:51:36.265Z,4.47
2022-07-26T01:54:06.521Z,4.73
2022-07-26T01:56:35.144Z,5.50
2022-07-26T01:59:03.769Z,6.33
2022-07-26T02:01:39.557Z,5.80
2022-07-26T02:04:09.376Z,4.30
2022-07-26T02:06:37.962Z,6.03
2022-07-26T02:09:10.718Z,7.50
2022-07-26T02:11:41.660Z,4.40
2022-07-26T02:14:10.651Z,5.03
2022-07-26T02:16:39.288Z,5.77
2022-07-26T02:19:07.576Z,7.70
2022-07-26T02:21:35.929Z,5.43
2022-07-26T02:24:04.524Z,4.57
2022-07-26T02:26:34.401Z,5.13
2022-07-26T02:29:02.719Z,5.83
2022-07-26T02:31:32.348Z,5.77
2022-07-26T02:34:00.921Z,5.70
2022-07-26T02:36:29.326Z,6.20
2022-07-26T02:38:58.748Z,5.30
2022-07-26T02:41:26.983Z,7.13
2022-07-26T02:43:56.761Z,5.90
2022-07-26T02:46:25.182Z,5.40
2022-07-26T02:48:53.664Z,5.40
2022-07-26T02:51:22.017Z,5.23
2022-07-26T02:53:50.353Z,6.00
2022-07-26T02:56:18.800Z,6.70
2022-07-26T02:58:47.291Z,7.53
2022-07-26T03:01:17.023Z,5.80
2022-07-26T03:03:50.226Z,5.47
2022-07-26T03:06:19.363Z,5.33
2022-07-26T03:08:48.259Z,6.20
2022-07-26T03:11:16.777Z,5.83
2022-07-26T03:13:45.186Z,6.13
2022-07-26T03:16:13.619Z,6.17
2022-07-26T03:18:43.410Z,6.00
2022-07-26T03:21:12.167Z,5.73
2022-07-26T03:23:40.557Z,5.63
2022-07-26T03:26:08.908Z,5.47
2022-07-26T03:28:37.685Z,6.70
2022-07-26T03:31:06.170Z,6.87
2022-07-26T03:33:34.607Z,5.87
2022-07-26T03:36:04.355Z,5.30
2022-07-26T03:38:39.799Z,5.60
2022-07-26T03:41:08.320Z,4.90
2022-07-26T03:43:41.310Z,4.57
2022-07-26T03:46:09.715Z,4.47
2022-07-26T03:48:38.126Z,4.10
2022-07-26T03:51:08.220Z,4.60
2022-07-26T03:53:36.559Z,4.63
2022-07-26T03:56:22.627Z,4.70
2022-07-26T03:58:50.951Z,4.40
2022-07-26T04:01:19.296Z,4.00
2022-07-26T04:03:48.065Z,5.37
2022-07-26T04:06:17.921Z,3.40
2022-07-26T04:08:46.301Z,4.00
2022-07-26T04:11:14.923Z,3.30
2022-07-26T04:13:43.341Z,3.73
2022-07-26T04:16:11.719Z,3.30
2022-07-26T04:18:40.204Z,2.93
2022-07-26T04:21:08.532Z,3.37
2022-07-26T04:23:38.292Z,2.90
2022-07-26T04:26:06.954Z,3.87
2022-07-26T04:28:35.383Z,2.80
2022-07-26T04:31:03.848Z,3.00
2022-07-26T04:33:33.210Z,3.50
2022-07-26T04:36:01.998Z,4.97
2022-07-26T04:38:30.363Z,3.07
2022-07-26T04:41:00.110Z,4.73
2022-07-26T04:43:28.449Z,1.93
2022-07-26T04:45:57.704Z,2.57
2022-07-26T04:48:26.602Z,4.37
2022-07-26T04:50:55.165Z,3.57
2022-07-26T04:53:23.687Z,2.07
2022-07-26T04:55:52.010Z,1.70
2022-07-26T04:58:21.771Z,2.33
2022-07-26T05:01:09.448Z,1.80
2022-07-26T05:03:38.501Z,2.10
2022-07-26T05:06:07.184Z,2.00
2022-07-26T05:08:35.482Z,2.73
2022-07-26T05:11:04.379Z,2.00
2022-07-26T05:13:34.135Z,3.00
2022-07-26T05:16:02.623Z,2.77
2022-07-26T05:18:48.682Z,1.80
2022-07-26T05:21:18.979Z,1.50
2022-07-26T05:23:47.729Z,4.07
2022-07-26T05:26:16.475Z,4.57
2022-07-26T05:28:46.219Z,2.10
2022-07-26T05:31:14.712Z,2.00
2022-07-26T05:33:43.079Z,2.70
2022-07-26T05:36:11.788Z,3.90
2022-07-26T05:38:40.533Z,4.37
2022-07-26T05:41:09.271Z,4.40
2022-07-26T05:43:41.571Z,2.20
2022-07-26T05:46:12.606Z,3.47
2022-07-26T05:48:41.490Z,4.37
2022-07-26T05:51:10.462Z,2.63
2022-07-26T05:53:40.959Z,4.53
2022-07-26T05:56:09.791Z,4.40
2022-07-26T05:58:38.312Z,2.43
2022-07-26T06:01:06.952Z,3.00
2022-07-26T06:03:36.682Z,3.93
2022-07-26T06:06:05.725Z,2.80
2022-07-26T06:08:34.516Z,3.37
2022-07-26T06:11:03.202Z,5.47
2022-07-26T06:13:31.588Z,3.83
2022-07-26T06:15:59.951Z,7.30
2022-07-26T06:18:28.494Z,3.60
2022-07-26T06:21:02.374Z,2.80
2022-07-26T06:23:34.104Z,3.60
2022-07-26T06:26:04.147Z,3.87
2022-07-26T06:28:32.791Z,2.80
2022-07-26T06:31:01.279Z,3.40
2022-07-26T06:33:29.645Z,3.60
2022-07-26T06:35:59.661Z,2.67
2022-07-26T06:38:30.964Z,3.80
2022-07-26T06:41:00.086Z,2.90
2022-07-26T06:43:28.494Z,2.50
2022-07-26T06:45:58.347Z,3.70
2022-07-26T06:48:26.843Z,2.30
2022-07-26T06:50:55.316Z,4.13
2022-07-26T06:53:25.033Z,3.97
2022-07-26T06:55:53.782Z,3.83
2022-07-26T06:58:22.310Z,2.80
2022-07-26T07:00:50.697Z,5.60
2022-07-26T07:03:19.041Z,4.77
2022-07-26T07:05:49.998Z,7.77
2022-07-26T07:08:20.106Z,3.43
2022-07-26T07:10:50.984Z,3.13
2022-07-26T07:13:19.912Z,5.67
2022-07-26T07:15:48.329Z,4.47
2022-07-26T07:18:17.193Z,6.00
2022-07-26T07:20:45.479Z,7.73
2022-07-26T07:23:13.853Z,9.70
2022-07-26T07:25:44.619Z,4.23
2022-07-26T07:28:14.819Z,2.43
2022-07-26T07:30:43.532Z,5.73
2022-07-26T07:33:21.969Z,3.80
2022-07-26T07:35:52.489Z,5.33
2022-07-26T07:38:22.493Z,3.40
2022-07-26T07:40:51.295Z,5.43
2022-07-26T07:43:21.060Z,4.30
2022-07-26T07:45:49.802Z,5.40
2022-07-26T07:48:18.473Z,4.43
2022-07-26T07:50:47.127Z,3.53
2022-07-26T07:53:15.526Z,3.87
2022-07-26T07:55:46.695Z,2.93
2022-07-26T07:58:17.300Z,2.53
2022-07-26T08:00:49.277Z,5.10
2022-07-26T08:03:18.788Z,7.83
2022-07-26T08:05:49.633Z,8.33
2022-07-26T08:08:19.110Z,7.40
2022-07-26T08:10:52.594Z,5.63
2022-07-26T08:13:22.221Z,6.83
2022-07-26T08:15:52.735Z,8.47
2022-07-26T08:18:22.602Z,4.80
2022-07-26T08:20:52.689Z,6.10
2022-07-26T08:23:23.410Z,6.00
2022-07-26T08:26:02.043Z,6.30
2022-07-26T08:28:55.137Z,5.87
2022-07-26T08:31:24.700Z,4.67
2022-07-26T08:33:53.039Z,7.37
2022-07-26T08:36:21.437Z,4.90
2022-07-26T08:38:49.794Z,6.97
2022-07-26T08:41:19.520Z,8.63
2022-07-26T08:43:51.537Z,8.43
2022-07-26T08:46:26.603Z,6.97
2022-07-26T08:48:56.393Z,6.37
2022-07-26T08:51:26.397Z,6.90
2022-07-26T08:54:03.990Z,6.40
2022-07-26T08:56:33.488Z,6.33
2022-07-26T08:59:06.048Z,7.43
2022-07-26T09:01:36.314Z,7.90
2022-07-26T09:04:43.206Z,12.87
2022-07-26T09:07:10.668Z,13.57
2022-07-26T09:09:41.420Z,20.50
2022-07-26T09:12:18.585Z,14.17
2022-07-26T09:14:47.865Z,10.90
2022-07-26T09:17:19.776Z,12.43
2022-07-26T09:20:04.374Z,16.77
2022-07-26T09:22:32.911Z,14.63
2022-07-26T09:25:01.418Z,16.90
2022-07-26T09:27:37.071Z,15.90
2022-07-26T09:30:09.256Z,16.70
2022-07-26T09:32:39.082Z,12.27
2022-07-26T09:35:45.243Z,17.70
2022-07-26T09:38:14.349Z,16.23
2022-07-26T09:40:46.751Z,15.37
2022-07-26T09:43:24.320Z,10.23
2022-07-26T09:46:06.140Z,14.50
2022-07-26T09:51:11.825Z,11.10
2022-07-26T09:53:41.851Z,8.30
2022-07-26T09:56:11.907Z,10.80
2022-07-26T09:58:40.626Z,9.00
2022-07-26T10:01:09.356Z,6.07
2022-07-26T10:03:37.709Z,8.07
2022-07-26T10:06:08.638Z,6.40
2022-07-26T10:08:38.560Z,6.57
2022-07-26T10:11:09.888Z,4.67
2022-07-26T10:13:39.747Z,6.93
2022-07-26T10:16:28.614Z,6.43
2022-07-26T10:18:58.033Z,5.33
2022-07-26T10:21:29.742Z,4.93
2022-07-26T10:24:01.519Z,4.63
2022-07-26T10:26:43.335Z,6.20
2022-07-26T10:29:28.042Z,5.87
2022-07-26T10:32:17.640Z,5.47
2022-07-26T10:34:46.529Z,5.63
2022-07-26T10:37:27.735Z,3.60
2022-07-26T10:40:25.506Z,6.10
2022-07-26T10:42:53.842Z,3.90
2022-07-26T10:45:24.213Z,4.10
2022-07-26T10:48:16.068Z,3.87
2022-07-26T10:50:46.273Z,4.20
2022-07-26T10:53:21.350Z,3.90
2022-07-26T10:55:53.390Z,3.93
2022-07-26T10:58:22.585Z,5.23
2022-07-26T11:01:02.378Z,5.30
2022-07-26T11:03:40.317Z,3.77
2022-07-26T11:06:16.971Z,3.73
2022-07-26T11:08:48.319Z,4.20
2022-07-26T11:11:30.853Z,4.23
2022-07-26T11:14:10.710Z,4.87
2022-07-26T11:16:41.198Z,4.30
2022-07-26T11:19:17.167Z,4.40
2022-07-26T11:21:46.796Z,4.37
2022-07-26T11:24:15.558Z,5.93
2022-07-26T11:26:46.701Z,4.13
2022-07-26T11:29:17.415Z,4.27
2022-07-26T11:31:55.552Z,5.17
2022-07-26T11:34:33.264Z,6.23
2022-07-26T11:37:03.444Z,4.77
2022-07-26T11:39:33.628Z,4.97
2022-07-26T11:42:05.231Z,6.93
2022-07-26T11:44:34.667Z,4.50
2022-07-26T11:47:12.683Z,6.63
2022-07-26T11:49:59.736Z,4.67
2022-07-26T11:52:31.612Z,6.60
2022-07-26T11:55:00.690Z,5.07
2022-07-26T11:57:32.027Z,4.67
2022-07-26T12:00:01.701Z,4.40
2022-07-26T12:02:31.460Z,6.07
2022-07-26T12:05:15.397Z,4.30
2022-07-26T12:07:58.465Z,5.10
2022-07-26T12:10:27.102Z,5.17
2022-07-26T12:13:11.033Z,5.03
2022-07-26T12:15:47.712Z,4.57
2022-07-26T12:18:24.861Z,6.40
2022-07-26T12:21:05.196Z,4.90
2022-07-26T12:23:45.085Z,4.47
2022-07-26T12:26:24.180Z,5.17
2022-07-26T12:28:54.282Z,4.33
2022-07-26T12:31:27.188Z,6.73
2022-07-26T12:33:56.035Z,3.70
2022-07-26T12:36:28.380Z,4.30
2022-07-26T12:38:58.760Z,4.47
2022-07-26T12:41:35.376Z,4.30
2022-07-26T12:44:06.287Z,4.23
2022-07-26T12:46:35.174Z,3.90
2022-07-26T12:49:04.357Z,5.90
2022-07-26T12:51:32.917Z,4.50
2022-07-26T12:54:01.426Z,4.27
2022-07-26T12:56:29.880Z,4.57
2022-07-26T12:59:01.613Z,4.23
2022-07-26T13:01:33.562Z,5.27
2022-07-26T13:04:02.139Z,3.80
2022-07-26T13:06:32.963Z,3.70
2022-07-26T13:09:01.438Z,3.90
2022-07-26T13:11:29.925Z,3.57
2022-07-26T13:13:58.311Z,4.40
2022-07-26T13:16:27.005Z,3.80
2022-07-26T13:18:56.806Z,4.87
2022-07-26T13:21:25.136Z,3.57
2022-07-26T13:23:53.969Z,3.90
2022-07-26T13:26:22.371Z,4.90
2022-07-26T13:28:50.993Z,5.50
2022-07-26T13:31:19.775Z,4.23
2022-07-26T13:33:48.281Z,3.70
2022-07-26T13:36:18.101Z,3.73
2022-07-26T13:38:46.365Z,4.73
2022-07-26T13:41:14.709Z,3.47
2022-07-26T13:43:43.120Z,3.50
2022-07-26T13:46:11.500Z,5.40
2022-07-26T13:48:52.704Z,3.70
2022-07-26T13:51:50.305Z,4.60
2022-07-26T13:54:20.329Z,5.70
2022-07-26T13:56:49.251Z,3.30
2022-07-26T13:59:17.940Z,3.67
2022-07-26T14:01:47.058Z,3.20
2022-07-26T14:04:16.539Z,3.40
2022-07-26T14:06:46.977Z,3.80
2022-07-26T14:09:16.308Z,3.97
2022-07-26T14:11:45.022Z,3.37
2022-07-26T14:14:14.119Z,3.33
2022-07-26T14:16:42.877Z,3.83
2022-07-26T14:19:15.796Z,4.30
2022-07-26T14:21:47.502Z,3.20
2022-07-26T14:24:29.191Z,3.50
2022-07-26T14:26:59.837Z,3.10
2022-07-26T14:29:31.267Z,2.90
2022-07-26T14:31:59.529Z,2.67
2022-07-26T14:34:27.900Z,4.33
2022-07-26T14:36:57.638Z,6.27
2022-07-26T14:39:25.997Z,2.70
2022-07-26T14:41:54.423Z,2.50
2022-07-26T14:44:22.749Z,2.60
2022-07-26T14:46:50.998Z,2.50
2022-07-26T14:49:19.514Z,2.90
2022-07-26T14:51:49.028Z,2.27
2022-07-26T14:54:19.118Z,3.10
2022-07-26T14:56:49.000Z,2.17
2022-07-26T14:59:17.946Z,2.50
2022-07-26T15:01:46.576Z,3.60
2022-07-26T15:04:15.163Z,2.43
2022-07-26T15:06:43.499Z,3.40
2022-07-26T15:09:12.679Z,2.73
2022-07-26T15:11:45.420Z,4.33
2022-07-26T15:14:16.261Z,2.57
2022-07-26T15:16:44.645Z,4.40
2022-07-26T15:19:13.267Z,3.23
2022-07-26T15:21:41.679Z,3.40
2022-07-26T15:24:10.963Z,2.50
2022-07-26T15:26:39.575Z,3.37
2022-07-26T15:29:09.212Z,3.00
2022-07-26T15:31:38.012Z,2.33
2022-07-26T15:34:09.286Z,4.60
2022-07-26T15:36:48.033Z,3.67
2022-07-26T15:39:17.881Z,2.57
2022-07-26T15:41:47.424Z,3.33
2022-07-26T15:44:17.714Z,3.07
2022-07-26T15:46:48.070Z,3.23
2022-07-26T15:49:18.057Z,2.83
2022-07-26T15:52:05.521Z,2.87
2022-07-26T15:54:36.183Z,2.43
2022-07-26T15:57:04.582Z,2.53
2022-07-26T15:59:32.973Z,2.50
2022-07-26T16:02:01.524Z,3.17
2022-07-26T16:04:29.940Z,2.70
2022-07-26T16:06:59.733Z,2.37
2022-07-26T16:09:28.054Z,2.33
2022-07-26T16:11:56.468Z,2.73
2022-07-26T16:14:24.987Z,2.53
2022-07-26T16:16:53.404Z,2.93
2022-07-26T16:19:21.918Z,3.07
2022-07-26T16:21:50.295Z,2.73
2022-07-26T16:24:20.042Z,6.43
2022-07-26T16:26:48.453Z,2.70
2022-07-26T16:29:16.794Z,2.63
2022-07-26T16:31:45.564Z,3.27
2022-07-26T16:34:14.168Z,6.87
2022-07-26T16:36:42.616Z,8.47
2022-07-26T16:39:11.606Z,6.90
2022-07-26T16:41:41.703Z,8.10
2022-07-26T16:44:09.994Z,5.40
2022-07-26T16:46:38.492Z,5.67
2022-07-26T16:49:07.077Z,4.63
2022-07-26T16:51:35.633Z,7.50
2022-07-26T16:54:04.063Z,7.87
2022-07-26T16:56:32.546Z,7.53
2022-07-26T16:59:02.289Z,3.57
2022-07-26T17:01:30.696Z,3.83
2022-07-26T17:03:59.152Z,3.87
2022-07-26T17:06:27.433Z,4.07
2022-07-26T17:08:55.777Z,4.57
2022-07-26T17:11:24.104Z,6.03
2022-07-26T17:13:53.536Z,3.63
2022-07-26T17:16:24.705Z,7.00
2022-07-26T17:18:53.695Z,3.53
2022-07-26T17:21:22.194Z,4.37
2022-07-26T17:23:51.264Z,4.93
2022-07-26T17:26:20.268Z,4.07
2022-07-26T17:28:48.900Z,4.43
2022-07-26T17:31:17.250Z,7.83
2022-07-26T17:33:47.031Z,5.57
2022-07-26T17:36:24.449Z,4.90
2022-07-26T17:38:53.431Z,4.77
2022-07-26T17:41:23.557Z,5.13
2022-07-26T17:44:02.539Z,3.97
2022-07-26T17:46:32.606Z,4.77
2022-07-26T17:49:02.971Z,5.53
2022-07-26T17:51:31.557Z,7.73
2022-07-26T17:54:00.054Z,7.07
2022-07-26T17:56:28.827Z,6.60
2022-07-26T17:58:57.979Z,4.00
2022-07-26T18:01:26.834Z,5.27
2022-07-26T18:03:55.372Z,5.17
2022-07-26T18:06:25.251Z,4.33
2022-07-26T18:08:53.558Z,4.67
2022-07-26T18:11:22.182Z,4.83
2022-07-26T18:13:50.579Z,6.67
2022-07-26T18:16:19.073Z,4.53
2022-07-26T18:18:47.357Z,4.33
2022-07-26T18:21:15.702Z,4.40
2022-07-26T18:24:06.739Z,4.60
2022-07-26T18:26:34.014Z,5.70
2022-07-26T18:29:02.818Z,4.73
2022-07-26T18:31:31.326Z,5.00
2022-07-26T18:34:04.348Z,5.53
2022-07-26T18:36:34.712Z,4.90
2022-07-26T18:39:05.230Z,4.90
2022-07-26T18:41:34.394Z,6.43
2022-07-26T18:44:02.825Z,6.33
2022-07-26T18:46:31.291Z,5.40
2022-07-26T18:49:02.520Z,5.30
2022-07-26T18:51:31.821Z,5.57
2022-07-26T18:54:00.264Z,5.10
2022-07-26T18:56:38.236Z,6.43
2022-07-26T18:59:06.625Z,5.57
2022-07-26T19:01:35.482Z,6.00
2022-07-26T19:04:06.977Z,5.90
2022-07-26T19:06:35.888Z,5.37
2022-07-26T19:09:04.422Z,6.57
2022-07-26T19:11:37.698Z,5.53
2022-07-26T19:14:06.310Z,5.17
2022-07-26T19:16:34.750Z,5.13
2022-07-26T19:19:03.216Z,6.00
2022-07-26T19:21:31.567Z,6.10
2022-07-26T19:23:59.943Z,5.53
2022-07-26T19:26:29.166Z,4.67
2022-07-26T19:28:58.872Z,5.27
2022-07-26T19:31:27.295Z,4.70
2022-07-26T19:33:55.640Z,4.70
2022-07-26T19:36:25.882Z,4.80
2022-07-26T19:38:55.843Z,5.03
2022-07-26T19:41:24.417Z,4.90
2022-07-26T19:43:52.696Z,5.73
2022-07-26T19:46:22.921Z,4.40
2022-07-26T19:48:51.495Z,5.10
2022-07-26T19:51:19.832Z,5.00
2022-07-26T19:53:48.195Z,4.50
2022-07-26T19:56:16.544Z,6.57
2022-07-26T19:58:46.236Z,5.10
2022-07-26T20:01:14.634Z,5.93
2022-07-26T22:46:08.929Z,4.17
2022-07-26T22:48:40.517Z,4.00
2022-07-26T22:51:10.582Z,3.80
2022-07-26T22:53:38.943Z,3.60
2022-07-26T22:56:07.662Z,3.50
2022-07-26T22:58:36.021Z,3.43
2022-07-26T23:01:04.552Z,3.93
2022-07-26T23:03:33.732Z,4.73
2022-07-26T23:06:06.359Z,3.80
2022-07-26T23:08:49.560Z,3.40
2022-07-26T23:11:17.985Z,4.10
2022-07-26T23:13:46.371Z,5.47
2022-07-26T23:16:14.846Z,4.10
2022-07-26T23:18:43.227Z,3.90
2022-07-26T23:21:12.989Z,3.83
2022-07-26T23:23:41.372Z,3.60
2022-07-26T23:26:09.725Z,3.93
2022-07-26T23:28:38.680Z,3.90
2022-07-26T23:31:09.395Z,4.00
2022-07-26T23:33:52.516Z,3.70
2022-07-26T23:36:28.699Z,4.20
2022-07-26T23:38:59.815Z,4.03
2022-07-26T23:41:29.218Z,3.40
2022-07-26T23:43:57.853Z,5.57
2022-07-26T23:46:26.635Z,4.10
2022-07-26T23:48:56.198Z,4.40
2022-07-26T23:51:24.602Z,4.37
2022-07-26T23:53:54.657Z,3.20
2022-07-26T23:56:23.309Z,5.97
2022-07-26T23:58:52.811Z,4.27
